To NAV CANADA Home Page Login to a new session Search on AWWS site Disclaimer Vers la page française équivalente Tips FAQ What's new on the site To the Forecasts and Observations / NOTAM section To "File a Flight Plan" website Publications and other links Update of the User's profile FIC Telephone Numbers My Weather Data Folder Route Weather Data Regional Weather Data Local Weather Data To the Forecasts and Observations / NOTAM section
Request Generated 09/16/2021 at 16:02:53 UTC . Weather information available at that time is displayed.


Go to a specific product

Save this request - Inactive

METAR/TAF

CALGARY/YYC CALGARY INTL/AB    

METAR CYYC 161500Z 32012G19KT 40SM FEW066 FEW085 FEW230 08/M03 A2993 RMK AC1AC1CC1 AC TR /LGT VIRGA E/ SLP159=
METAR CYYC 161400Z 32012KT 40SM FEW070 FEW085 FEW200 06/M04 A2992 RMK AC1AC1CI1 AC TR CI TR /LGT VIRGA NE/ SLP158=
METAR CYYC 161300Z 34007KT 30SM FEW089 03/M05 A2991 RMK AC1 SLP155=

TAF CYYC 161438Z 1615/1712 32010G20KT P6SM SCT080 BKN200
FM170000 30010KT P6SM FEW100
BECMG 1705/1707 24008KT
FM171000 22008KT P6SM BKN120 OVC220
RMK NXT FCST BY 161800Z=

CALGARY/SPRINGBANK/AB    (show WxCam)

METAR CYBW 161600Z AUTO 31009G15KT 270V350 9SM FEW150 08/M03 A2995 RMK SLP170 DENSITY ALT 4000FT=
METAR CYBW 161500Z AUTO 28009KT 9SM CLR 04/M03 A2994 RMK SLP173=
METAR CYBW 161400Z AUTO 29008KT 270V350 9SM CLR M01/M06 A2993 RMK SLP176=

TAF CYBW 161138Z 1612/1624 34006KT P6SM FEW090
FM161500 28010G20KT P6SM FEW070 SCT120
RMK FCST BASED ON AUTO OBS. NXT FCST BY 161800Z=


GRAPHICAL FA CLOUDS & WEATHER FORECASTS
To the Product Selector
Graphical FA gfacn32      

GRAPHICAL FA ICING, TURBULENCE & FREEZING LEVEL FORECASTS
To the Product Selector
Graphical FA gfacn32      

Your time UTC time
Weather data provided by Environment Canada and NAV CANADA